Time;durP1;ratioP1;P1;durP2;ratioP2;P2;SDS_P1;SDS_P2;PMS_P1;PMS_P2;Temp;Humidity;BMP_temperature;BMP_pressure;BME280_temperature;BME280_humidity;BME280_pressure;Samples;Min_cycle;Max_cycle;Signal;HPM_P1;HPM_P2
2021/03/20 00:00:32;;;;;;;9.40;6.30;;;;;;;6.37;54.57;102857.41;4937496;28;110213;-66
2021/03/20 00:02:59;;;;;;;12.05;6.45;;;;;;;6.36;54.32;102860.91;4936882;28;110429;-66
2021/03/20 00:05:26;;;;;;;12.43;6.05;;;;;;;6.33;54.55;102855.66;4931501;28;123578;-67
2021/03/20 00:07:54;;;;;;;10.48;6.28;;;;;;;6.32;54.71;102848.63;4936238;28;123785;-66
2021/03/20 00:10:23;;;;;;;9.73;6.80;;;;;;;6.31;54.82;102846.88;4937474;28;109567;-66
2021/03/20 00:12:51;;;;;;;10.57;7.18;;;;;;;6.29;54.81;102859.16;4920628;28;108457;-67
2021/03/20 00:15:22;;;;;;;11.48;6.65;;;;;;;6.30;54.69;102860.88;4919166;28;123321;-66
2021/03/20 00:17:49;;;;;;;12.32;6.53;;;;;;;6.30;54.79;102866.16;4933498;28;124277;-67
2021/03/20 00:20:21;;;;;;;14.68;7.20;;;;;;;6.27;55.02;102860.88;4936537;28;108301;-67
2021/03/20 00:22:47;;;;;;;10.85;6.68;;;;;;;6.27;54.80;102866.13;4933995;28;108370;-66
2021/03/20 00:25:14;;;;;;;12.50;7.32;;;;;;;6.25;54.73;102873.13;4949324;28;123427;-66
2021/03/20 00:27:41;;;;;;;11.52;7.03;;;;;;;6.22;54.76;102862.63;4950359;28;122637;-67
2021/03/20 00:30:08;;;;;;;10.18;6.85;;;;;;;6.20;54.83;102864.34;4937677;28;109266;-66
2021/03/20 00:32:35;;;;;;;9.45;7.22;;;;;;;6.20;54.93;102864.34;4951194;28;108214;-67
2021/03/20 00:35:05;;;;;;;13.10;6.75;;;;;;;6.19;54.93;102857.31;4919390;28;123457;-66
2021/03/20 00:37:32;;;;;;;9.38;6.55;;;;;;;6.17;54.79;102859.06;4934907;28;123702;-66
2021/03/20 00:39:58;;;;;;;14.93;8.05;;;;;;;6.16;54.92;102857.28;4937068;28;108809;-66
2021/03/20 00:42:25;;;;;;;11.18;7.15;;;;;;;6.14;54.90;102859.03;4936169;28;109645;-66
2021/03/20 00:44:51;;;;;;;10.88;6.78;;;;;;;6.15;54.88;102858.19;4936191;28;123997;-65
2021/03/20 00:47:18;;;;;;;13.90;7.60;;;;;;;6.15;55.13;102866.06;4935648;28;124083;-67
2021/03/20 00:49:45;;;;;;;11.68;7.47;;;;;;;6.13;54.80;102867.81;4936424;28;110167;-65
2021/03/20 00:52:12;;;;;;;10.95;7.20;;;;;;;6.12;54.78;102866.03;4937026;28;110236;-65
2021/03/20 00:54:38;;;;;;;12.48;7.30;;;;;;;6.10;54.79;102867.78;4918545;28;122894;-67
2021/03/20 00:57:05;;;;;;;12.75;7.53;;;;;;;6.08;54.95;102869.53;4936790;28;122923;-65
2021/03/20 00:59:32;;;;;;;10.57;7.75;;;;;;;6.06;54.89;102871.28;4935832;28;108278;-65
2021/03/20 01:01:58;;;;;;;13.02;8.23;;;;;;;6.01;55.12;102869.50;4936868;28;108930;-66
2021/03/20 01:04:25;;;;;;;11.40;7.55;;;;;;;5.97;55.08;102877.34;4934049;28;124242;-66
2021/03/20 01:06:52;;;;;;;13.27;7.82;;;;;;;5.92;55.17;102879.91;4934953;28;123750;-65
2021/03/20 01:09:26;;;;;;;13.70;8.02;;;;;;;5.91;55.08;102888.66;4934125;28;109170;-65
2021/03/20 01:11:52;;;;;;;13.35;7.80;;;;;;;5.88;55.03;102883.41;4936157;28;109197;-65
2021/03/20 01:14:19;;;;;;;12.63;7.85;;;;;;;5.87;55.09;102886.88;4933578;28;123133;-65
2021/03/20 01:16:46;;;;;;;16.92;8.35;;;;;;;5.88;55.29;102888.66;4936236;28;127331;-65
2021/03/20 01:19:12;;;;;;;13.93;8.43;;;;;;;5.88;55.09;102883.41;4934573;28;109472;-65
2021/03/20 01:21:39;;;;;;;13.65;7.80;;;;;;;5.88;55.21;102882.50;4935693;28;109552;-66
2021/03/20 01:24:06;;;;;;;14.75;8.20;;;;;;;5.90;55.26;102888.69;4966846;22;124108;-68
2021/03/20 01:26:33;;;;;;;12.18;7.85;;;;;;;5.91;55.24;102893.91;4955404;28;124066;-68
2021/03/20 01:28:59;;;;;;;12.00;8.38;;;;;;;5.90;55.55;102905.31;4954805;28;109520;-69
2021/03/20 01:31:26;;;;;;;14.18;8.98;;;;;;;5.90;55.43;102900.06;4954707;28;110481;-69
2021/03/20 01:33:53;;;;;;;12.32;7.40;;;;;;;5.89;55.28;102906.19;4945474;28;122894;-68
2021/03/20 01:36:19;;;;;;;13.18;8.57;;;;;;;5.89;55.43;102910.56;4952994;28;124514;-69
2021/03/20 01:38:46;;;;;;;14.32;8.30;;;;;;;5.90;55.65;102912.34;4945781;28;112798;-68
2021/03/20 01:41:18;;;;;;;14.40;8.60;;;;;;;5.90;55.32;102918.47;4951009;28;109830;-69
2021/03/20 01:43:46;;;;;;;11.10;7.75;;;;;;;5.92;55.46;102914.09;4945876;28;123397;-68
2021/03/20 01:46:40;;;;;;;14.05;8.73;;;;;;;5.93;55.62;102907.97;4946657;28;123233;-68
2021/03/20 01:49:21;;;;;;;12.25;7.88;;;;;;;5.95;55.74;102915.88;4951122;28;109544;-68
2021/03/20 01:52:27;;;;;;;13.60;8.38;;;;;;;5.95;55.55;102922.06;4943788;28;108973;-69
2021/03/20 01:55:02;;;;;;;14.10;8.83;;;;;;;5.95;55.29;102916.81;4943183;28;123759;-68
2021/03/20 01:57:34;;;;;;;13.77;7.72;;;;;;;5.95;55.56;102922.06;4939543;28;124014;-68
2021/03/20 02:00:08;;;;;;;12.73;8.32;;;;;;;5.96;55.43;102921.19;4949075;28;109489;-68
2021/03/20 02:02:38;;;;;;;11.02;8.27;;;;;;;5.98;55.40;102911.53;4950699;28;109818;-69
2021/03/20 02:05:07;;;;;;;12.00;8.23;;;;;;;5.99;55.40;102908.06;4947392;28;123986;-68
2021/03/20 02:07:33;;;;;;;11.65;8.23;;;;;;;6.02;55.43;102912.44;4952089;28;123513;-69
2021/03/20 02:10:12;;;;;;;11.85;8.52;;;;;;;6.04;55.30;102906.31;4950871;28;109792;-69
2021/03/20 02:12:41;;;;;;;12.77;8.00;;;;;;;6.06;55.49;102901.06;4953360;28;108522;-69
2021/03/20 02:15:21;;;;;;;14.15;8.50;;;;;;;6.06;55.33;102902.84;4948011;28;124318;-68
2021/03/20 02:18:27;;;;;;;9.60;7.55;;;;;;;6.06;55.05;102902.84;4934759;28;123193;-68
2021/03/20 02:21:16;;;;;;;13.00;8.10;;;;;;;6.06;55.00;102900.22;4941114;28;109559;-68
2021/03/20 02:24:08;;;;;;;11.40;7.60;;;;;;;6.04;54.91;102889.66;4922521;28;108474;-69
2021/03/20 02:27:02;;;;;;;11.63;7.68;;;;;;;6.01;54.80;102893.16;4933418;28;123272;-68
2021/03/20 02:29:44;;;;;;;12.23;8.02;;;;;;;6.00;54.87;102894.03;4952009;28;123936;-69
2021/03/20 02:32:22;;;;;;;11.82;8.52;;;;;;;5.95;54.83;102894.81;4948317;28;110417;-68
2021/03/20 02:35:23;;;;;;;12.05;8.15;;;;;;;5.90;54.79;102897.44;4942053;28;110160;-68
2021/03/20 02:38:11;;;;;;;10.05;7.72;;;;;;;5.85;54.73;102886.00;4948969;28;124197;-68
2021/03/20 02:40:58;;;;;;;13.10;7.63;;;;;;;5.80;54.60;102890.31;4949640;28;123958;-68
2021/03/20 02:44:07;;;;;;;11.68;7.65;;;;;;;5.75;54.63;102892.06;4951920;28;108336;-68
2021/03/20 02:46:45;;;;;;;13.55;7.78;;;;;;;5.72;54.43;102886.78;4949443;28;109326;-68
2021/03/20 02:49:42;;;;;;;9.05;7.10;;;;;;;5.68;54.83;102890.25;4942200;28;124623;-69
2021/03/20 02:52:24;;;;;;;12.55;7.68;;;;;;;5.63;54.66;102898.97;4944854;28;123967;-69
2021/03/20 02:55:02;;;;;;;12.32;7.93;;;;;;;5.59;54.54;102902.41;4943216;28;109220;-68
2021/03/20 02:57:47;;;;;;;10.27;6.72;;;;;;;5.58;54.68;102902.44;4946383;28;109435;-68
2021/03/20 03:00:31;;;;;;;9.25;7.05;;;;;;;5.54;54.54;102901.53;4949159;28;124249;-68
2021/03/20 03:03:01;;;;;;;9.95;8.00;;;;;;;5.52;54.75;102900.63;4948377;28;123983;-68
2021/03/20 03:05:35;;;;;;;13.10;7.47;;;;;;;5.48;54.67;102898.81;4951947;28;110812;-68
2021/03/20 03:08:18;;;;;;;11.15;7.43;;;;;;;5.44;54.51;102902.28;4952241;28;108765;-68
2021/03/20 03:11:03;;;;;;;10.32;7.15;;;;;;;5.41;54.60;102897.03;4951988;28;123026;-69
2021/03/20 03:13:34;;;;;;;12.48;7.38;;;;;;;5.40;54.77;102905.75;4946998;28;124631;-68
2021/03/20 03:16:11;;;;;;;10.40;6.38;;;;;;;5.35;54.71;102902.19;4948965;28;109632;-68
2021/03/20 03:18:44;;;;;;;12.63;7.05;;;;;;;5.32;54.51;102907.44;4936577;28;107967;-68
2021/03/20 03:21:14;;;;;;;13.93;7.32;;;;;;;5.28;54.49;102901.28;4950668;28;122845;-68
2021/03/20 03:23:42;;;;;;;12.38;7.25;;;;;;;5.24;54.57;102900.34;4943984;28;123855;-68
2021/03/20 03:26:19;;;;;;;9.52;6.30;;;;;;;5.22;54.31;102894.22;4939850;28;110369;-68
2021/03/20 03:28:49;;;;;;;9.05;6.57;;;;;;;5.21;54.29;102900.31;4947466;28;110345;-68
2021/03/20 03:31:34;;;;;;;10.70;6.85;;;;;;;5.17;54.29;102903.78;4947638;28;124058;-68
2021/03/20 03:34:27;;;;;;;12.15;6.68;;;;;;;5.10;54.26;102907.19;4960337;28;122928;-68
2021/03/20 03:37:15;;;;;;;11.23;6.72;;;;;;;5.06;54.38;102905.41;4944724;28;107601;-68
2021/03/20 03:39:47;;;;;;;9.68;6.10;;;;;;;5.01;54.10;102896.59;4920365;28;109393;-68
2021/03/20 03:42:16;;;;;;;10.05;6.38;;;;;;;4.97;54.21;102905.28;4950204;28;123806;-68
2021/03/20 03:44:49;;;;;;;9.63;6.45;;;;;;;4.91;54.34;102895.59;4947437;28;123132;-68
2021/03/20 03:47:22;;;;;;;9.73;6.13;;;;;;;4.87;54.21;102894.69;4950448;28;109048;-68
2021/03/20 03:49:53;;;;;;;10.10;6.03;;;;;;;4.85;54.45;102900.78;4946792;28;109335;-68
2021/03/20 03:52:19;;;;;;;10.50;6.15;;;;;;;4.82;54.30;102896.41;4949380;28;123572;-68
2021/03/20 03:54:48;;;;;;;9.38;6.30;;;;;;;4.81;54.35;102899.88;4949047;28;124907;-69
2021/03/20 03:57:43;;;;;;;8.90;5.70;;;;;;;4.77;54.42;102898.06;4952600;28;109555;-68
2021/03/20 04:00:27;;;;;;;9.05;6.05;;;;;;;4.75;54.46;102905.06;4914983;28;108942;-68
2021/03/20 04:03:22;;;;;;;9.55;6.03;;;;;;;4.74;54.29;102908.53;4946092;28;124709;-68
2021/03/20 04:06:25;;;;;;;8.32;5.78;;;;;;;4.71;54.34;102913.75;4948018;28;123220;-68
2021/03/20 04:09:13;;;;;;;10.02;5.57;;;;;;;4.68;54.21;102909.31;4951209;28;108114;-68
2021/03/20 04:11:56;;;;;;;9.40;5.57;;;;;;;4.67;54.38;102911.94;4951087;28;108890;-68
2021/03/20 04:14:29;;;;;;;7.50;5.80;;;;;;;4.66;54.34;102915.44;4949775;28;124349;-68
2021/03/20 04:17:42;;;;;;;9.95;5.78;;;;;;;4.65;54.16;102908.41;4948903;28;123559;-68
2021/03/20 04:20:23;;;;;;;8.85;6.22;;;;;;;4.63;54.11;102913.66;4949155;28;109837;-68
2021/03/20 04:23:06;;;;;;;10.25;5.53;;;;;;;4.60;54.12;102915.34;4944408;28;110643;-68
2021/03/20 04:25:48;;;;;;;12.40;5.88;;;;;;;4.57;53.96;102916.19;4947740;28;124372;-69
2021/03/20 04:28:30;;;;;;;10.85;6.30;;;;;;;4.55;53.77;102922.28;4951837;28;124970;-68
2021/03/20 04:31:06;;;;;;;9.05;5.97;;;;;;;4.53;54.07;102934.50;4952322;28;108199;-69
2021/03/20 04:33:41;;;;;;;10.15;5.78;;;;;;;4.49;54.08;102929.19;4944074;28;109649;-68
2021/03/20 04:36:17;;;;;;;9.13;6.15;;;;;;;4.48;54.07;102927.44;4947776;28;123318;-68
2021/03/20 04:38:45;;;;;;;10.77;5.93;;;;;;;4.45;53.81;102922.16;4945493;28;123965;-68
2021/03/20 04:41:13;;;;;;;7.20;5.65;;;;;;;4.44;53.98;102930.88;4950256;28;109236;-68
2021/03/20 04:43:41;;;;;;;8.85;5.40;;;;;;;4.42;53.81;102927.34;4953626;28;109450;-68
2021/03/20 04:46:18;;;;;;;10.00;5.68;;;;;;;4.40;54.08;102926.44;4952369;28;123254;-68
2021/03/20 04:48:52;;;;;;;8.77;5.35;;;;;;;4.39;53.82;102932.56;4948013;28;123841;-68
2021/03/20 04:51:25;;;;;;;11.03;5.93;;;;;;;4.35;54.08;102932.47;4949106;28;109476;-68
2021/03/20 04:54:25;;;;;;;11.43;5.85;;;;;;;4.30;53.90;102940.28;4948406;28;109265;-68
2021/03/20 04:57:05;;;;;;;10.73;5.60;;;;;;;4.27;54.01;102942.88;4908823;28;124388;-68
2021/03/20 05:00:06;;;;;;;6.47;5.10;;;;;;;4.23;53.96;102946.31;4947840;28;124616;-68
2021/03/20 05:02:40;;;;;;;9.57;5.88;;;;;;;4.17;53.92;102951.47;4952937;28;109000;-68
2021/03/20 05:05:38;;;;;;;9.00;5.43;;;;;;;4.11;53.92;102952.25;4952954;28;110033;-68
2021/03/20 05:08:09;;;;;;;10.43;5.95;;;;;;;4.07;53.86;102946.06;4951852;28;122837;-68
2021/03/20 05:10:41;;;;;;;10.13;5.78;;;;;;;4.04;53.92;102946.00;4953980;28;123889;-69
2021/03/20 05:13:46;;;;;;;10.77;6.68;;;;;;;4.00;53.99;102938.97;4953680;28;110601;-68
2021/03/20 05:16:15;;;;;;;9.43;5.70;;;;;;;3.97;53.95;102944.13;4951557;28;108958;-68
2021/03/20 05:18:48;;;;;;;8.60;5.75;;;;;;;3.94;54.03;102941.50;4952737;28;124490;-68
2021/03/20 05:21:28;;;;;;;7.45;5.55;;;;;;;3.93;54.05;102936.22;4936513;28;122898;-68
2021/03/20 05:23:55;;;;;;;7.82;5.53;;;;;;;3.91;54.02;102944.03;4964140;28;108521;-68
2021/03/20 05:26:22;;;;;;;7.90;5.55;;;;;;;3.87;53.93;102937.88;4953711;28;108891;-68
2021/03/20 05:28:49;;;;;;;8.90;5.97;;;;;;;3.85;53.96;102943.94;4950163;28;123265;-68
2021/03/20 05:31:16;;;;;;;7.85;5.90;;;;;;;3.81;54.12;102936.91;4954653;28;124069;-68
2021/03/20 05:33:46;;;;;;;8.90;5.75;;;;;;;3.78;54.32;102942.06;4944853;28;108489;-68
2021/03/20 05:36:13;;;;;;;8.68;5.68;;;;;;;3.76;54.07;102943.78;4946740;28;110946;-68
2021/03/20 05:38:40;;;;;;;11.45;5.97;;;;;;;3.72;54.21;102941.97;4948267;28;124034;-68
2021/03/20 05:41:30;;;;;;;9.32;6.07;;;;;;;3.68;54.23;102939.28;4952556;28;123848;-68
2021/03/20 05:44:14;;;;;;;11.65;6.35;;;;;;;3.66;54.20;102943.63;4952248;28;109501;-68
2021/03/20 05:46:48;;;;;;;11.90;6.80;;;;;;;3.64;54.08;102940.09;4952067;28;109284;-68
2021/03/20 05:49:35;;;;;;;11.45;6.40;;;;;;;3.62;54.42;102936.56;4945489;28;124057;-68
2021/03/20 05:52:01;;;;;;;;;;;;;;;3.58;54.24;102932.16;4948450;28;124130;-68
2021/03/20 05:55:03;;;;;;;9.73;5.85;;;;;;;3.55;54.29;102947.78;4932124;28;109007;-68
2021/03/20 05:57:47;;;;;;;12.70;5.88;;;;;;;3.52;54.28;102955.59;4949862;28;108040;-68
2021/03/20 06:01:12;;;;;;;9.93;6.47;;;;;;;3.49;54.33;102960.78;4952465;28;124565;-68
2021/03/20 06:03:46;;;;;;;10.60;6.85;;;;;;;3.47;54.50;102967.75;4931194;28;124171;-68
2021/03/20 06:06:28;;;;;;;10.35;6.72;;;;;;;3.48;54.75;102964.25;4941409;28;110719;-68
2021/03/20 06:09:22;;;;;;;9.43;6.32;;;;;;;3.48;54.79;102964.25;4951953;28;109488;-68
2021/03/20 06:12:01;;;;;;;10.98;7.15;;;;;;;3.48;54.79;102966.88;4950980;28;123718;-68
2021/03/20 06:14:43;;;;;;;11.05;6.93;;;;;;;3.48;54.84;102961.63;4950655;28;124685;-68
2021/03/20 06:17:31;;;;;;;11.30;6.60;;;;;;;3.50;54.88;102968.69;4949585;28;108109;-68
2021/03/20 06:20:17;;;;;;;12.27;7.60;;;;;;;3.52;54.91;102966.06;4949520;28;109174;-68
2021/03/20 06:23:10;;;;;;;10.82;7.28;;;;;;;3.54;55.10;102974.84;4950529;28;124424;-68
2021/03/20 06:25:52;;;;;;;11.15;6.97;;;;;;;3.57;55.03;102974.91;4949687;28;124378;-68
2021/03/20 06:28:25;;;;;;;14.25;8.60;;;;;;;3.59;55.20;102983.66;4954207;28;109912;-68
2021/03/20 06:30:58;;;;;;;13.20;8.43;;;;;;;3.61;55.10;102981.97;4953220;28;108888;-68
2021/03/20 06:33:41;;;;;;;13.00;8.20;;;;;;;3.63;54.99;102985.50;4948751;28;124136;-68
2021/03/20 06:36:15;;;;;;;13.35;8.57;;;;;;;3.66;55.30;102975.06;4948574;28;124411;-68
2021/03/20 06:38:46;;;;;;;13.38;7.85;;;;;;;3.73;55.36;102988.28;4957381;28;109185;-68
2021/03/20 06:41:36;;;;;;;16.95;10.15;;;;;;;3.83;55.56;102987.59;4981437;28;108572;-68
2021/03/20 06:44:24;;;;;;;14.48;10.18;;;;;;;3.98;55.93;102985.25;4951665;28;124027;-68
2021/03/20 06:46:51;;;;;;;14.38;9.93;;;;;;;4.13;56.00;102982.00;4951039;28;123685;-69
2021/03/20 06:49:47;;;;;;;12.27;9.25;;;;;;;4.34;56.38;102986.69;4945154;28;108784;-68
2021/03/20 06:52:20;;;;;;;15.82;10.00;;;;;;;4.59;56.23;102993.19;4947475;28;107455;-68
2021/03/20 06:54:54;;;;;;;14.35;9.50;;;;;;;4.84;56.11;102999.69;4945438;28;124453;-69
2021/03/20 06:57:21;;;;;;;14.38;9.60;;;;;;;5.06;56.00;102994.69;4944300;28;123187;-68
2021/03/20 06:59:48;;;;;;;13.82;9.32;;;;;;;5.26;56.12;102993.19;4951623;28;110186;-70
2021/03/20 07:02:36;;;;;;;13.70;9.63;;;;;;;5.49;55.75;102997.84;4948423;28;108809;-69
2021/03/20 07:05:12;;;;;;;14.90;9.10;;;;;;;5.70;55.42;102998.91;4945615;28;123963;-69
2021/03/20 07:08:09;;;;;;;13.85;9.73;;;;;;;5.90;55.60;102999.13;4946159;28;123766;-68
2021/03/20 07:10:46;;;;;;;12.90;8.88;;;;;;;6.12;54.89;103013.38;4946490;28;109841;-69
2021/03/20 07:13:44;;;;;;;14.40;9.73;;;;;;;6.28;54.95;103012.63;4950142;28;109113;-68
2021/03/20 07:16:14;;;;;;;14.70;9.60;;;;;;;6.42;54.51;103024.16;4951889;28;123657;-68
2021/03/20 07:18:58;;;;;;;11.77;8.43;;;;;;;6.55;53.92;103024.22;4948154;28;124055;-69
2021/03/20 07:21:38;;;;;;;12.05;8.13;;;;;;;6.63;53.59;103017.28;4945179;28;109379;-68
2021/03/20 07:24:04;;;;;;;9.93;7.57;;;;;;;6.71;53.65;103020.84;4964807;22;108828;-66
2021/03/20 07:26:47;;;;;;;11.27;7.38;;;;;;;6.81;53.48;103027.91;4931516;28;124084;-66
2021/03/20 07:29:14;;;;;;;10.82;7.20;;;;;;;6.95;53.44;103032.38;4941436;28;123736;-65
2021/03/20 07:31:58;;;;;;;11.73;6.97;;;;;;;7.08;53.33;103034.19;4934379;28;109546;-66
2021/03/20 07:34:32;;;;;;;12.95;7.65;;;;;;;7.16;52.52;103029.84;4918296;28;109115;-66
2021/03/20 07:37:20;;;;;;;13.52;6.88;;;;;;;7.24;52.56;103042.19;4897621;28;124293;-66
2021/03/20 07:39:53;;;;;;;12.32;6.78;;;;;;;7.31;52.26;103043.94;4899876;28;124713;-66
2021/03/20 07:42:34;;;;;;;10.48;6.47;;;;;;;7.34;52.16;103043.97;4898824;28;109479;-66
2021/03/20 07:45:07;;;;;;;10.30;6.60;;;;;;;7.40;52.27;103038.72;4900133;28;109369;-66
2021/03/20 07:47:38;;;;;;;9.70;6.45;;;;;;;7.49;52.17;103038.75;4911399;28;124887;-66
2021/03/20 07:50:14;;;;;;;8.68;6.30;;;;;;;7.53;51.21;103040.50;4895831;28;122684;-67
2021/03/20 07:52:41;;;;;;;9.60;6.57;;;;;;;7.51;51.62;103041.41;4895342;28;110703;-65
2021/03/20 07:55:23;;;;;;;11.20;7.18;;;;;;;7.49;51.16;103038.75;4914686;28;110382;-66
2021/03/20 07:57:55;;;;;;;8.15;5.80;;;;;;;7.54;51.53;103031.75;4900604;28;121977;-66
2021/03/20 08:00:27;;;;;;;6.95;5.20;;;;;;;7.63;51.27;103040.53;4900082;28;124406;-67
2021/03/20 08:03:02;;;;;;;7.65;5.55;;;;;;;7.70;51.15;103037.06;4896310;28;109642;-66
2021/03/20 08:05:34;;;;;;;8.00;5.18;;;;;;;7.72;50.52;103035.28;4900575;28;109086;-67
2021/03/20 08:08:23;;;;;;;7.65;5.43;;;;;;;7.75;51.19;103035.31;4896490;28;125047;-67
2021/03/20 08:10:55;;;;;;;7.72;5.07;;;;;;;7.83;51.05;103028.28;4913561;28;124248;-67
2021/03/20 08:13:38;;;;;;;7.63;5.07;;;;;;;7.91;50.13;103026.56;4898979;28;109196;-67
2021/03/20 08:16:05;;;;;;;7.57;5.03;;;;;;;8.01;50.84;103022.16;4915424;28;108357;-67
2021/03/20 08:18:38;;;;;;;9.23;5.30;;;;;;;8.10;50.50;103021.28;4911897;28;123641;-67
2021/03/20 08:21:04;;;;;;;7.65;5.43;;;;;;;8.19;49.93;103016.00;4906739;28;123903;-68
2021/03/20 08:24:01;;;;;;;8.07;5.47;;;;;;;8.26;49.62;103012.47;4917330;28;109348;-67
2021/03/20 08:26:27;;;;;;;;;;;;;;;8.33;50.43;103008.97;4914914;28;108206;-67
2021/03/20 08:28:58;;;;;;;9.18;5.38;;;;;;;8.44;50.39;103010.72;4913109;28;124657;-67
2021/03/20 08:32:02;;;;;;;7.40;4.60;;;;;;;8.53;50.10;103016.00;4905962;28;124308;-68
2021/03/20 08:34:45;;;;;;;8.02;5.10;;;;;;;8.61;49.75;103018.63;4920485;28;109474;-67
2021/03/20 08:37:47;;;;;;;8.90;4.68;;;;;;;8.65;49.30;103016.00;4909956;28;108713;-68
2021/03/20 08:40:24;;;;;;;7.13;4.72;;;;;;;8.70;48.85;103019.53;4902070;28;123893;-67
2021/03/20 08:43:28;;;;;;;8.57;4.75;;;;;;;8.70;48.42;103023.91;4901248;28;124530;-69
2021/03/20 08:46:27;;;;;;;6.70;4.70;;;;;;;8.68;48.24;103021.28;4912995;28;109041;-68
2021/03/20 08:49:39;;;;;;;7.13;5.03;;;;;;;8.70;48.43;103030.09;4905949;28;109623;-67
2021/03/20 08:52:08;;;;;;;7.07;4.60;;;;;;;8.76;47.41;103024.78;4934173;28;124289;-69
2021/03/20 08:54:49;;;;;;;6.20;4.40;;;;;;;8.74;46.90;103029.19;4926776;28;123657;-67
2021/03/20 08:57:25;;;;;;;7.38;4.55;;;;;;;8.73;47.58;103021.25;4919874;28;107377;-67
2021/03/20 08:59:53;;;;;;;;;;;;;;;8.73;48.40;103023.91;4915486;28;108687;-67
2021/03/20 09:02:23;;;;;;;5.65;4.07;;;;;;;8.77;47.55;103031.81;4916260;28;123905;-67
2021/03/20 09:05:17;;;;;;;7.45;4.95;;;;;;;8.76;47.63;103023.91;4906306;28;124558;-67
2021/03/20 09:07:54;;;;;;;9.10;5.10;;;;;;;8.76;47.77;103018.63;4916988;28;108767;-69
2021/03/20 09:10:37;;;;;;;7.90;4.53;;;;;;;8.77;47.88;103031.81;4904709;28;109164;-68
2021/03/20 09:13:15;;;;;;;;;;;;;;;8.82;48.46;103038.88;4910815;28;125041;-68
2021/03/20 09:15:48;;;;;;;7.82;4.68;;;;;;;8.91;48.15;103033.53;4909120;28;124243;-68
2021/03/20 09:18:17;;;;;;;6.50;4.50;;;;;;;8.99;48.25;103030.91;4899641;28;109710;-68
2021/03/20 09:20:59;;;;;;;6.70;4.82;;;;;;;9.04;47.70;103035.28;4909338;28;108893;-68
2021/03/20 09:23:34;;;;;;;7.18;4.80;;;;;;;9.11;47.50;103030.84;4915197;28;123315;-67
2021/03/20 09:26:05;;;;;;;7.90;4.00;;;;;;;9.20;46.86;103035.22;4906303;28;123807;-68
2021/03/20 09:29:06;;;;;;;6.35;4.22;;;;;;;9.23;46.80;103035.19;4899403;28;107217;-67
2021/03/20 09:31:32;;;;;;;5.93;3.75;;;;;;;9.28;46.34;103044.88;4898358;28;109135;-67
2021/03/20 09:34:18;;;;;;;6.20;4.25;;;;;;;9.33;46.17;103035.16;4912707;28;123775;-67
2021/03/20 09:36:49;;;;;;;7.43;4.05;;;;;;;9.41;45.57;103044.81;4913437;28;123947;-66
2021/03/20 09:39:39;;;;;;;6.03;3.83;;;;;;;9.43;45.52;103033.34;4913625;28;109600;-67
2021/03/20 09:42:27;;;;;;;6.82;3.78;;;;;;;9.48;45.54;103042.13;4913880;28;109171;-67
2021/03/20 09:45:17;;;;;;;5.95;3.83;;;;;;;9.51;45.72;103036.84;4907410;28;123107;-67
2021/03/20 09:47:44;;;;;;;5.85;4.03;;;;;;;9.57;45.32;103032.38;4901810;28;124039;-67
2021/03/20 09:50:20;;;;;;;5.70;4.00;;;;;;;9.61;45.18;103026.22;4927207;28;108868;-68
2021/03/20 09:52:55;;;;;;;7.57;3.78;;;;;;;9.63;44.40;103027.09;4918024;28;109311;-67
2021/03/20 09:55:28;;;;;;;;;;;;;;;9.64;45.49;103032.34;4913780;28;123861;-67
2021/03/20 09:57:56;;;;;;;6.05;4.10;;;;;;;9.72;45.26;103029.69;4900960;28;124038;-68
2021/03/20 10:00:44;;;;;;;5.72;3.95;;;;;;;9.77;45.64;103027.84;4901023;28;108236;-67
2021/03/20 10:03:11;;;;;;;5.85;4.10;;;;;;;9.85;45.67;103026.06;4900288;28;108833;-67
2021/03/20 10:05:38;;;;;;;5.97;4.03;;;;;;;9.94;45.43;103027.75;4910745;28;124856;-68
2021/03/20 10:08:19;;;;;;;5.13;3.78;;;;;;;10.00;44.74;103018.88;4916128;28;124200;-67
2021/03/20 10:10:51;;;;;;;6.80;4.00;;;;;;;10.06;43.77;103014.44;4917950;28;109227;-68
2021/03/20 10:13:23;;;;;;;5.65;3.97;;;;;;;10.08;43.42;103017.06;4912120;28;109326;-67
2021/03/20 10:16:01;;;;;;;6.43;4.28;;;;;;;10.10;44.08;103023.22;4915830;28;123182;-67
2021/03/20 10:18:53;;;;;;;5.85;3.88;;;;;;;10.14;43.84;103011.72;4915373;28;122958;-68
2021/03/20 10:21:25;;;;;;;6.53;4.28;;;;;;;10.21;44.09;103012.53;4915228;28;109610;-68
2021/03/20 10:24:04;;;;;;;6.07;3.90;;;;;;;10.24;43.83;103002.78;4930952;28;106798;-68
2021/03/20 10:26:46;;;;;;;7.93;3.92;;;;;;;10.33;43.86;103004.50;4916788;28;124516;-67
2021/03/20 10:29:18;;;;;;;6.03;3.60;;;;;;;10.44;43.75;103009.72;4886482;28;123100;-67
2021/03/20 10:31:50;;;;;;;5.88;4.03;;;;;;;10.52;43.81;102997.25;4916179;28;109430;-67
2021/03/20 10:34:21;;;;;;;5.97;4.30;;;;;;;10.61;43.82;102991.00;4915657;28;108993;-67
2021/03/20 10:37:10;;;;;;;7.30;4.55;;;;;;;10.67;44.24;102991.81;4914635;28;124279;-68
2021/03/20 10:39:45;;;;;;;7.63;4.40;;;;;;;10.79;43.26;102989.91;4905775;28;124597;-68
2021/03/20 10:42:21;;;;;;;7.75;4.53;;;;;;;10.88;43.22;102989.81;4903460;28;109596;-67
2021/03/20 10:44:52;;;;;;;6.85;5.07;;;;;;;10.94;43.57;102987.06;4915125;28;108293;-67
2021/03/20 10:47:28;;;;;;;6.70;4.70;;;;;;;10.99;42.77;102972.00;4928815;28;122958;-67
2021/03/20 10:50:30;;;;;;;8.52;4.70;;;;;;;10.99;42.66;102965.81;4899066;28;124273;-67
2021/03/20 10:53:00;;;;;;;6.97;4.53;;;;;;;11.01;42.93;102962.25;4899604;28;109101;-67
2021/03/20 10:55:38;;;;;;;6.90;4.80;;;;;;;11.08;42.76;102963.91;4912031;28;108980;-67
2021/03/20 10:58:08;;;;;;;6.32;4.90;;;;;;;11.14;42.16;102967.41;4902993;28;124387;-67
2021/03/20 11:00:47;;;;;;;7.05;4.88;;;;;;;11.12;42.41;102967.41;4904202;28;124615;-67
2021/03/20 11:03:13;;;;;;;8.32;4.82;;;;;;;11.16;42.90;102968.25;4899529;28;109714;-67
2021/03/20 11:05:42;;;;;;;6.53;5.15;;;;;;;11.20;42.85;102964.66;4925988;28;108860;-67
2021/03/20 11:08:24;;;;;;;6.32;4.85;;;;;;;11.26;42.35;102953.97;4908969;28;123054;-67
2021/03/20 11:11:06;;;;;;;6.93;4.80;;;;;;;11.31;42.63;102946.81;4908080;28;123674;-67
2021/03/20 11:13:37;;;;;;;6.03;4.65;;;;;;;11.34;41.88;102957.41;4897472;28;109583;-67
2021/03/20 11:16:18;;;;;;;8.23;4.65;;;;;;;11.36;42.05;102947.63;4901203;28;108936;-67
2021/03/20 11:18:49;;;;;;;7.60;4.70;;;;;;;11.39;41.86;102939.63;4898124;28;123586;-66
2021/03/20 11:21:24;;;;;;;6.78;4.85;;;;;;;11.42;41.66;102939.59;4898425;28;124071;-66
2021/03/20 11:24:16;;;;;;;5.05;3.75;;;;;;;11.46;41.57;102941.28;4896016;28;109357;-66
2021/03/20 11:26:46;;;;;;;5.50;3.83;;;;;;;11.49;41.15;102946.56;4905595;28;110489;-67
2021/03/20 11:29:39;;;;;;;6.90;4.00;;;;;;;11.50;41.38;102942.13;4918079;28;123007;-66
2021/03/20 11:32:18;;;;;;;5.00;3.85;;;;;;;11.57;41.23;102940.25;4911007;28;124059;-67
2021/03/20 11:34:45;;;;;;;5.85;4.07;;;;;;;11.61;41.05;102939.31;4913238;28;108794;-67
2021/03/20 11:37:19;;;;;;;6.05;4.10;;;;;;;11.66;40.80;102937.47;4903910;28;108251;-67
2021/03/20 11:39:53;;;;;;;6.40;4.50;;;;;;;11.69;40.17;102932.94;4917509;28;123257;-67
2021/03/20 11:42:26;;;;;;;5.82;4.20;;;;;;;11.74;40.23;102930.25;4894189;28;124121;-67
2021/03/20 11:44:54;;;;;;;5.65;4.50;;;;;;;11.77;40.27;102932.84;4903356;28;109817;-67
2021/03/20 11:47:32;;;;;;;6.57;4.53;;;;;;;11.81;40.21;102926.59;4918561;28;107099;-67
2021/03/20 11:50:03;;;;;;;5.93;4.30;;;;;;;11.85;39.84;102922.97;4906949;28;124695;-68
2021/03/20 11:52:50;;;;;;;5.78;4.60;;;;;;;11.90;39.81;102919.41;4904834;28;124453;-68
2021/03/20 11:55:28;;;;;;;6.47;4.18;;;;;;;11.96;40.14;102919.28;4912612;28;110565;-68
2021/03/20 11:58:01;;;;;;;5.88;4.25;;;;;;;12.03;40.12;102911.19;4915210;28;109506;-68
2021/03/20 12:00:35;;;;;;;6.30;4.32;;;;;;;12.15;40.21;102910.09;4915130;28;124616;-69
2021/03/20 12:03:05;;;;;;;8.10;5.00;;;;;;;12.25;40.61;102901.03;4909922;28;124143;-68
2021/03/20 12:05:36;;;;;;;7.25;4.97;;;;;;;12.37;40.45;102904.38;4918808;28;109357;-69
2021/03/20 12:08:33;;;;;;;5.70;4.82;;;;;;;12.48;40.76;102896.19;4908048;28;109278;-67